Time;durP1;ratioP1;P1;durP2;ratioP2;P2;SDS_P1;SDS_P2;PMS_P1;PMS_P2;Temp;Humidity;BMP_temperature;BMP_pressure;BME280_temperature;BME280_humidity;BME280_pressure;Samples;Min_cycle;Max_cycle;Signal;HPM_P1;HPM_P2
2021/10/03 00:00:00;;;;;;;6.77;6.17;;;15.20;97.20;;;;;;5119245;28;20518;-46
2021/10/03 00:02:29;;;;;;;6.53;5.93;;;15.20;97.20;;;;;;5119264;28;20456;-46
2021/10/03 00:04:55;;;;;;;7.40;6.70;;;15.20;97.20;;;;;;5118982;28;20457;-46
2021/10/03 00:07:21;;;;;;;7.40;6.70;;;15.20;97.30;;;;;;5118869;28;20398;-46
2021/10/03 00:09:50;;;;;;;6.60;5.90;;;15.10;97.20;;;;;;5119454;28;20455;-46
2021/10/03 00:12:17;;;;;;;6.07;5.47;;;15.10;97.30;;;;;;5119900;28;20409;-46
2021/10/03 00:14:43;;;;;;;6.83;6.13;;;15.10;97.30;;;;;;5120876;28;20525;-46
2021/10/03 00:17:09;;;;;;;5.77;5.27;;;15.10;97.30;;;;;;5121023;28;20422;-46
2021/10/03 00:19:36;;;;;;;6.40;5.80;;;15.00;97.20;;;;;;5120596;28;20461;-46
2021/10/03 00:22:02;;;;;;;7.17;6.47;;;15.00;97.20;;;;;;5120371;28;20259;-45
2021/10/03 00:24:30;;;;;;;7.07;6.37;;;15.00;97.30;;;;;;5120475;28;20432;-46
2021/10/03 00:26:56;;;;;;;7.57;5.90;;;15.00;97.30;;;;;;5120706;28;20546;-46
2021/10/03 00:29:23;;;;;;;6.97;6.27;;;14.90;97.10;;;;;;5118953;28;20461;-46
2021/10/03 00:31:49;;;;;;;7.17;6.07;;;14.90;97.20;;;;;;5119330;28;20638;-46
2021/10/03 00:34:15;;;;;;;6.60;6.00;;;14.90;97.30;;;;;;5099396;28;20934;-46
2021/10/03 00:36:40;;;;;;;9.80;6.03;;;14.90;97.20;;;;;;5099005;28;20809;-46
2021/10/03 00:39:06;;;;;;;6.80;6.20;;;14.90;97.30;;;;;;5098808;28;20929;-46
2021/10/03 00:41:32;;;;;;;7.07;6.37;;;14.90;97.30;;;;;;5116598;28;20569;-46
2021/10/03 00:43:58;;;;;;;6.67;6.03;;;14.90;97.40;;;;;;5117338;28;20434;-46
2021/10/03 00:46:24;;;;;;;8.20;6.43;;;14.80;97.30;;;;;;5117090;28;20682;-46
2021/10/03 00:48:50;;;;;;;7.40;6.67;;;14.80;97.50;;;;;;5119011;28;20245;-46
2021/10/03 00:51:16;;;;;;;6.57;5.97;;;14.80;97.40;;;;;;5120349;28;20478;-46
2021/10/03 00:53:42;;;;;;;7.23;6.50;;;14.80;97.40;;;;;;5119095;28;20589;-46
2021/10/03 00:56:12;;;;;;;6.60;5.97;;;14.80;97.50;;;;;;5118968;28;20417;-46
2021/10/03 00:58:38;;;;;;;6.80;6.20;;;14.80;97.60;;;;;;5117284;28;20212;-46
2021/10/03 01:01:04;;;;;;;6.80;6.20;;;14.80;97.50;;;;;;5117154;28;20874;-46
2021/10/03 01:03:30;;;;;;;7.30;6.60;;;14.70;97.50;;;;;;5116013;28;20754;-46
2021/10/03 01:05:56;;;;;;;6.10;5.50;;;14.70;97.60;;;;;;5116517;28;20448;-46
2021/10/03 01:08:49;;;;;;;6.63;5.97;;;14.70;97.60;;;;;;5118864;28;20450;-46
2021/10/03 01:11:15;;;;;;;6.87;6.17;;;14.70;97.40;;;;;;5117216;28;20241;-46
2021/10/03 01:13:44;;;;;;;5.57;5.07;;;14.70;97.30;;;;;;5119055;28;20418;-46
2021/10/03 01:16:10;;;;;;;6.70;6.10;;;14.80;97.20;;;;;;5101202;28;20681;-46
2021/10/03 01:18:36;;;;;;;6.80;6.10;;;14.80;97.00;;;;;;5117885;28;20475;-46
2021/10/03 01:21:06;;;;;;;7.07;6.37;;;14.80;96.90;;;;;;5116013;28;20226;-46
2021/10/03 01:23:32;;;;;;;5.80;5.30;;;14.90;96.70;;;;;;5116691;28;20175;-46
2021/10/03 01:25:58;;;;;;;6.20;5.60;;;15.00;96.50;;;;;;5116520;28;20429;-46
2021/10/03 01:28:24;;;;;;;7.50;5.70;;;15.10;96.10;;;;;;5098172;28;20177;-46
2021/10/03 01:30:51;;;;;;;6.63;6.03;;;15.20;95.80;;;;;;5116558;28;20212;-46
2021/10/03 01:33:17;;;;;;;7.33;5.77;;;15.20;95.50;;;;;;5117183;28;20239;-46
2021/10/03 01:35:45;;;;;;;5.90;5.20;;;15.30;95.40;;;;;;5119012;28;20437;-46
2021/10/03 01:38:14;;;;;;;6.10;5.50;;;15.40;95.20;;;;;;5119023;28;20816;-46
2021/10/03 01:40:41;;;;;;;6.10;5.50;;;15.40;95.10;;;;;;5119366;28;20469;-46
2021/10/03 01:43:07;;;;;;;6.27;5.67;;;15.40;95.00;;;;;;5119767;28;20485;-46
2021/10/03 01:45:33;;;;;;;7.13;5.53;;;15.40;94.90;;;;;;5118775;28;20827;-46
2021/10/03 01:48:21;;;;;;;5.87;5.30;;;15.50;94.90;;;;;;5117946;28;20221;-47
2021/10/03 01:51:02;;;;;;;6.23;5.63;;;15.50;94.70;;;;;;5118505;28;20208;-46
2021/10/03 01:53:34;;;;;;;6.20;5.47;;;15.50;94.70;;;;;;5119176;28;20452;-46
2021/10/03 01:56:00;;;;;;;6.10;5.50;;;15.50;94.80;;;;;;5118367;28;20444;-47
2021/10/03 01:58:29;;;;;;;5.53;5.03;;;15.40;94.80;;;;;;5119236;28;20410;-46
2021/10/03 02:00:58;;;;;;;6.17;5.57;;;15.40;95.00;;;;;;5118806;28;20484;-46
2021/10/03 02:03:24;;;;;;;6.40;5.30;;;15.40;95.10;;;;;;5118939;28;20425;-46
2021/10/03 02:05:50;;;;;;;5.47;4.90;;;15.40;95.10;;;;;;5118320;28;20426;-46
2021/10/03 02:08:17;;;;;;;6.47;5.87;;;15.40;94.90;;;;;;5118325;28;20599;-46
2021/10/03 02:10:50;;;;;;;6.53;5.67;;;15.40;94.90;;;;;;5118512;28;20681;-46
2021/10/03 02:13:17;;;;;;;7.07;6.43;;;15.40;95.20;;;;;;5117327;28;20695;-46
2021/10/03 02:15:44;;;;;;;6.00;5.47;;;15.40;95.00;;;;;;5116825;28;20429;-46
2021/10/03 02:18:11;;;;;;;6.63;5.90;;;15.40;95.00;;;;;;5116868;28;20413;-46
2021/10/03 02:20:37;;;;;;;8.40;5.30;;;15.40;95.00;;;;;;5117221;28;20567;-46
2021/10/03 02:23:05;;;;;;;5.60;5.10;;;15.40;95.10;;;;;;5116361;28;20831;-46
2021/10/03 02:25:30;;;;;;;6.70;5.53;;;15.30;95.10;;;;;;5115759;28;20528;-46
2021/10/03 02:27:57;;;;;;;6.17;5.57;;;15.30;95.30;;;;;;5117000;28;20500;-46
2021/10/03 02:30:23;;;;;;;5.53;5.03;;;15.30;95.20;;;;;;5117474;28;20216;-46
2021/10/03 02:32:49;;;;;;;5.90;5.30;;;15.30;95.20;;;;;;5117722;28;20519;-46
2021/10/03 02:35:15;;;;;;;5.37;4.87;;;15.30;95.20;;;;;;5116469;28;20490;-46
2021/10/03 02:37:41;;;;;;;8.17;5.60;;;15.20;94.90;;;;;;5117044;28;20438;-46
2021/10/03 02:40:11;;;;;;;5.93;5.33;;;15.20;94.90;;;;;;5116668;28;20477;-46
2021/10/03 02:42:38;;;;;;;5.43;4.93;;;15.20;94.50;;;;;;5117114;28;20405;-46
2021/10/03 02:45:08;;;;;;;6.17;5.57;;;15.30;94.40;;;;;;5117349;28;20440;-46
2021/10/03 02:47:34;;;;;;;5.20;4.50;;;15.20;94.40;;;;;;5116457;28;20703;-46
2021/10/03 02:50:00;;;;;;;5.60;5.00;;;15.30;94.10;;;;;;5117338;28;20425;-46
2021/10/03 02:52:25;;;;;;;5.50;5.00;;;15.30;93.80;;;;;;5118418;28;20495;-46
2021/10/03 02:54:51;;;;;;;6.57;5.80;;;15.30;93.90;;;;;;5118291;28;20216;-47
2021/10/03 02:57:17;;;;;;;5.20;4.70;;;15.30;94.00;;;;;;5118015;28;20170;-47
2021/10/03 02:59:43;;;;;;;6.50;5.13;;;15.20;94.00;;;;;;5118041;28;20207;-47
2021/10/03 03:02:09;;;;;;;5.27;4.77;;;15.20;94.00;;;;;;5117141;28;20448;-47
2021/10/03 03:04:34;;;;;;;4.90;4.50;;;15.10;94.00;;;;;;5117478;28;20184;-47
2021/10/03 03:07:00;;;;;;;5.33;4.83;;;15.10;94.10;;;;;;5118232;28;20198;-47
2021/10/03 03:09:26;;;;;;;5.03;4.60;;;15.00;94.00;;;;;;5117762;28;20173;-47
2021/10/03 03:11:51;;;;;;;5.30;4.80;;;15.00;94.00;;;;;;5117768;28;20253;-47
2021/10/03 03:14:17;;;;;;;5.10;4.70;;;14.90;94.30;;;;;;5116673;28;20552;-47
2021/10/03 03:16:48;;;;;;;5.40;4.90;;;14.90;94.30;;;;;;5116184;28;20180;-47
2021/10/03 03:19:15;;;;;;;5.33;4.87;;;14.80;93.90;;;;;;5116431;28;20418;-47
2021/10/03 03:21:41;;;;;;;4.87;4.47;;;14.80;93.70;;;;;;5098267;28;20422;-47
2021/10/03 03:24:07;;;;;;;5.17;4.70;;;14.80;93.80;;;;;;5116701;28;20426;-47
2021/10/03 03:26:33;;;;;;;4.90;4.40;;;14.80;93.90;;;;;;5119669;28;20450;-47
2021/10/03 03:29:00;;;;;;;5.47;4.80;;;14.70;93.70;;;;;;5121663;28;20422;-46
2021/10/03 03:31:26;;;;;;;4.63;4.13;;;14.70;93.70;;;;;;5120978;28;20439;-46
2021/10/03 03:33:52;;;;;;;6.03;4.80;;;14.70;93.70;;;;;;5120271;28;20850;-47
2021/10/03 03:36:18;;;;;;;5.37;4.87;;;14.70;93.60;;;;;;5101903;28;20437;-47
2021/10/03 03:38:45;;;;;;;7.73;4.77;;;14.70;93.50;;;;;;5120103;28;20700;-47
2021/10/03 03:41:12;;;;;;;4.90;4.40;;;14.70;93.50;;;;;;5119614;28;21004;-47
2021/10/03 03:43:38;;;;;;;5.00;4.50;;;14.60;93.40;;;;;;5119888;28;20413;-47
2021/10/03 03:46:04;;;;;;;4.40;3.80;;;14.60;93.30;;;;;;5101197;28;20418;-47
2021/10/03 03:48:30;;;;;;;5.77;4.90;;;14.60;93.10;;;;;;5120868;28;20417;-47
2021/10/03 03:50:56;;;;;;;4.97;4.47;;;14.60;93.30;;;;;;5120812;28;20856;-47
2021/10/03 03:53:22;;;;;;;4.50;4.10;;;14.60;93.40;;;;;;5120904;28;20186;-47
2021/10/03 03:55:47;;;;;;;4.67;4.27;;;14.60;93.50;;;;;;5121008;28;20229;-47
2021/10/03 03:58:13;;;;;;;6.50;4.93;;;14.60;93.70;;;;;;5120898;28;20180;-47
2021/10/03 04:00:39;;;;;;;4.60;4.20;;;14.50;94.00;;;;;;5120795;28;20216;-47
2021/10/03 04:03:04;;;;;;;4.50;4.03;;;14.50;94.10;;;;;;5121020;28;20454;-48
2021/10/03 04:05:30;;;;;;;4.97;4.50;;;14.50;94.20;;;;;;5120879;28;20188;-48
2021/10/03 04:07:56;;;;;;;4.57;4.13;;;14.40;94.10;;;;;;5121283;28;20203;-48
2021/10/03 04:10:22;;;;;;;4.90;4.40;;;14.40;94.10;;;;;;5121208;28;20187;-48
2021/10/03 04:12:47;;;;;;;4.90;4.40;;;14.40;94.30;;;;;;5120643;28;20168;-48
2021/10/03 04:15:13;;;;;;;5.17;4.67;;;14.40;94.40;;;;;;5120732;28;20201;-48
2021/10/03 04:17:39;;;;;;;4.40;4.00;;;14.40;94.40;;;;;;5120797;28;20176;-49
2021/10/03 04:20:06;;;;;;;4.77;3.90;;;14.30;94.30;;;;;;5102535;28;20531;-48
2021/10/03 04:22:33;;;;;;;4.33;3.93;;;14.30;94.30;;;;;;5120927;28;20243;-48
2021/10/03 04:24:59;;;;;;;5.70;4.37;;;14.30;94.10;;;;;;5120305;28;20426;-48
2021/10/03 04:27:25;;;;;;;5.63;5.13;;;14.30;94.20;;;;;;5121124;28;20428;-48
2021/10/03 04:29:50;;;;;;;4.23;3.83;;;14.20;94.30;;;;;;5119864;28;20203;-48
2021/10/03 04:32:16;;;;;;;5.43;4.90;;;14.20;94.40;;;;;;5119386;28;20242;-48
2021/10/03 04:34:43;;;;;;;5.73;5.07;;;14.20;94.60;;;;;;5119794;28;20176;-48
2021/10/03 04:37:09;;;;;;;5.23;4.83;;;14.10;94.70;;;;;;5118435;28;20443;-48
2021/10/03 04:39:36;;;;;;;5.80;5.07;;;14.10;94.90;;;;;;5118775;28;20547;-48
2021/10/03 04:42:02;;;;;;;5.10;4.60;;;14.00;95.00;;;;;;5119776;28;20437;-48
2021/10/03 04:44:28;;;;;;;5.70;4.10;;;14.00;95.10;;;;;;5119337;28;20469;-48
2021/10/03 04:46:54;;;;;;;4.47;4.07;;;14.00;95.30;;;;;;5119418;28;20432;-48
2021/10/03 04:49:20;;;;;;;5.03;4.53;;;14.00;95.20;;;;;;5119321;28;20167;-48
2021/10/03 04:51:46;;;;;;;6.10;4.17;;;14.00;95.20;;;;;;5101426;28;20433;-48
2021/10/03 04:54:12;;;;;;;5.17;4.67;;;14.00;95.20;;;;;;5119428;28;20398;-48
2021/10/03 04:56:37;;;;;;;4.90;4.40;;;14.00;94.90;;;;;;5119360;28;20272;-48
2021/10/03 04:59:03;;;;;;;4.50;4.10;;;14.00;95.00;;;;;;5118485;28;20405;-48
2021/10/03 05:01:29;;;;;;;4.83;4.43;;;14.00;95.10;;;;;;5119872;28;20208;-48
2021/10/03 05:03:55;;;;;;;4.90;4.50;;;13.90;95.20;;;;;;5120415;28;20430;-48
2021/10/03 05:06:21;;;;;;;4.90;4.40;;;13.90;95.00;;;;;;5119972;28;20205;-48
2021/10/03 05:08:46;;;;;;;5.20;4.37;;;14.00;95.10;;;;;;5101976;28;20180;-48
2021/10/03 05:11:12;;;;;;;5.90;4.27;;;14.00;95.20;;;;;;5119948;28;20184;-48
2021/10/03 05:13:38;;;;;;;5.73;4.73;;;14.00;95.30;;;;;;5101690;28;20421;-48
2021/10/03 05:16:04;;;;;;;6.57;4.30;;;14.00;95.20;;;;;;5119589;28;20429;-49
2021/10/03 05:18:30;;;;;;;5.57;4.00;;;14.00;95.30;;;;;;5120148;28;20326;-48
2021/10/03 05:20:56;;;;;;;5.00;4.30;;;14.00;95.30;;;;;;5119530;28;20552;-48
2021/10/03 05:23:22;;;;;;;4.90;4.40;;;14.10;95.30;;;;;;5119612;28;20181;-48
2021/10/03 05:25:47;;;;;;;4.60;3.90;;;14.10;95.20;;;;;;5118550;28;20514;-48
2021/10/03 05:28:13;;;;;;;4.37;3.97;;;14.10;95.30;;;;;;5119477;28;20180;-48
2021/10/03 05:30:39;;;;;;;4.37;3.90;;;14.10;95.10;;;;;;5118782;28;20267;-48
2021/10/03 05:33:05;;;;;;;4.90;4.40;;;14.10;95.10;;;;;;5117902;28;20469;-48
2021/10/03 05:35:30;;;;;;;4.23;3.83;;;14.20;95.20;;;;;;5099468;28;20512;-48
2021/10/03 05:37:56;;;;;;;4.40;4.00;;;14.20;95.10;;;;;;5117573;28;20183;-48
2021/10/03 05:40:22;;;;;;;4.37;3.97;;;14.20;94.80;;;;;;5117453;28;20280;-48
2021/10/03 05:42:47;;;;;;;4.93;4.43;;;14.20;94.70;;;;;;5116631;28;20196;-48
2021/10/03 05:45:13;;;;;;;4.60;4.17;;;14.20;94.60;;;;;;5107646;28;20196;-48
2021/10/03 05:47:39;;;;;;;4.27;3.87;;;14.20;94.50;;;;;;5080732;28;20237;-48
2021/10/03 05:50:06;;;;;;;4.83;4.33;;;14.20;94.60;;;;;;5097849;28;20189;-48
2021/10/03 05:52:32;;;;;;;5.00;4.50;;;14.30;94.60;;;;;;5099034;28;20177;-48
2021/10/03 05:54:58;;;;;;;5.03;4.53;;;14.30;94.50;;;;;;5097986;28;20443;-48
2021/10/03 05:57:24;;;;;;;6.90;4.50;;;14.30;94.70;;;;;;5098744;28;20414;-48
2021/10/03 05:59:50;;;;;;;5.87;5.27;;;14.40;94.50;;;;;;5098579;28;20478;-48
2021/10/03 06:02:16;;;;;;;5.13;4.63;;;14.40;94.20;;;;;;5098306;28;20255;-48
2021/10/03 06:04:42;;;;;;;5.40;3.70;;;14.50;94.40;;;;;;5098260;28;20539;-48
2021/10/03 06:07:08;;;;;;;4.90;4.50;;;14.50;94.10;;;;;;5097734;28;20184;-48
2021/10/03 06:09:33;;;;;;;4.53;3.80;;;14.60;93.80;;;;;;5080764;28;20867;-49
2021/10/03 06:12:04;;;;;;;4.20;3.80;;;14.70;93.80;;;;;;5077254;28;20422;-48
2021/10/03 06:14:30;;;;;;;4.50;4.10;;;14.80;93.80;;;;;;5080887;28;20514;-48
2021/10/03 06:16:56;;;;;;;4.77;4.37;;;15.00;93.70;;;;;;5098112;28;20523;-48
2021/10/03 06:19:22;;;;;;;4.40;3.93;;;15.20;93.30;;;;;;5096172;28;20452;-48
2021/10/03 06:21:48;;;;;;;4.80;4.17;;;15.30;92.90;;;;;;5098645;28;20565;-48
2021/10/03 06:24:17;;;;;;;5.17;4.20;;;15.50;92.80;;;;;;5098185;28;20509;-48
2021/10/03 06:26:47;;;;;;;4.27;3.70;;;15.80;92.80;;;;;;5098009;28;20416;-49
2021/10/03 06:29:16;;;;;;;4.83;4.10;;;16.00;92.50;;;;;;5097070;28;20828;-48
2021/10/03 06:31:42;;;;;;;4.10;3.70;;;16.20;91.80;;;;;;5100712;28;20482;-49
2021/10/03 06:34:08;;;;;;;4.40;4.00;;;16.30;91.60;;;;;;5082363;28;20835;-40
2021/10/03 06:36:34;;;;;;;4.80;4.17;;;16.50;91.10;;;;;;5117461;28;20437;-43
2021/10/03 06:39:00;;;;;;;4.60;3.87;;;16.70;90.70;;;;;;5116934;28;20425;-41
2021/10/03 06:41:25;;;;;;;4.20;3.80;;;16.80;90.40;;;;;;5082362;28;20226;-41
2021/10/03 06:43:52;;;;;;;3.87;3.57;;;17.00;90.30;;;;;;5117014;28;20803;-41
2021/10/03 06:46:18;;;;;;;4.40;3.90;;;17.20;90.10;;;;;;5118313;28;20237;-42
2021/10/03 06:48:44;;;;;;;3.70;3.40;;;17.40;89.70;;;;;;5100732;28;20422;-41
2021/10/03 06:51:09;;;;;;;3.80;3.50;;;17.60;88.80;;;;;;5118574;28;20578;-43
2021/10/03 06:53:35;;;;;;;4.03;3.50;;;17.80;88.60;;;;;;5118652;28;20457;-46
2021/10/03 06:56:03;;;;;;;4.77;4.37;;;17.90;87.50;;;;;;5100555;28;20442;-43
2021/10/03 06:58:29;;;;;;;4.30;3.70;;;18.00;87.70;;;;;;5100674;28;20428;-41
2021/10/03 07:00:54;;;;;;;4.03;3.57;;;18.10;88.10;;;;;;5120301;27;20575;-42
2021/10/03 07:03:21;;;;;;;7.20;4.10;;;18.10;89.10;;;;;;5121762;28;20570;-41
2021/10/03 07:05:47;;;;;;;4.50;4.10;;;18.10;88.70;;;;;;5104005;28;20184;-40
2021/10/03 07:08:13;;;;;;;5.53;4.33;;;18.20;88.50;;;;;;5104582;28;20409;-45
2021/10/03 07:10:41;;;;;;;4.50;4.10;;;18.10;88.00;;;;;;5122586;28;20577;-44
2021/10/03 07:13:07;;;;;;;4.67;4.27;;;18.10;88.00;;;;;;5122767;28;20486;-42
2021/10/03 07:15:33;;;;;;;6.37;4.60;;;18.10;88.40;;;;;;5103074;28;20737;-44
2021/10/03 07:17:59;;;;;;;4.53;4.13;;;18.10;88.80;;;;;;5102638;28;20434;-42
2021/10/03 07:20:26;;;;;;;4.80;4.37;;;18.20;89.70;;;;;;5101507;28;20478;-41
2021/10/03 07:22:52;;;;;;;4.27;3.87;;;18.20;89.80;;;;;;5083603;28;20449;-42
2021/10/03 07:25:20;;;;;;;5.13;4.53;;;18.30;89.90;;;;;;5061308;28;20516;-41
2021/10/03 07:27:47;;;;;;;4.80;4.30;;;18.50;89.90;;;;;;5084376;28;20178;-42
2021/10/03 07:30:13;;;;;;;4.70;4.30;;;18.60;90.10;;;;;;5098447;28;20835;-41
2021/10/03 07:32:40;;;;;;;4.67;4.27;;;18.80;90.20;;;;;;5110019;28;20471;-42
2021/10/03 07:35:06;;;;;;;3.67;3.37;;;19.00;90.40;;;;;;5121388;28;20434;-42
2021/10/03 07:37:32;;;;;;;4.43;4.03;;;19.20;90.20;;;;;;5102342;28;20668;-44
2021/10/03 07:39:57;;;;;;;5.07;4.57;;;19.40;89.40;;;;;;5102818;28;20872;-40
2021/10/03 07:42:24;;;;;;;4.80;4.40;;;19.60;87.80;;;;;;5100904;28;20767;-44
2021/10/03 07:44:50;;;;;;;4.30;3.90;;;19.60;87.10;;;;;;5118711;28;20172;-41
2021/10/03 07:47:16;;;;;;;4.20;3.80;;;19.60;86.20;;;;;;5119339;28;20783;-41
2021/10/03 07:49:41;;;;;;;4.80;4.03;;;19.60;87.00;;;;;;5100695;28;20424;-40
2021/10/03 07:52:08;;;;;;;4.77;4.37;;;19.50;87.30;;;;;;5101491;28;20184;-41
2021/10/03 07:54:34;;;;;;;5.03;4.53;;;19.50;85.40;;;;;;5118613;28;20321;-41
2021/10/03 07:57:00;;;;;;;5.00;4.03;;;19.50;85.70;;;;;;5120251;28;20760;-41
2021/10/03 07:59:26;;;;;;;4.07;3.67;;;19.50;85.10;;;;;;5120566;28;20506;-41
2021/10/03 08:01:53;;;;;;;4.20;3.80;;;19.40;85.30;;;;;;5120467;28;20707;-43
2021/10/03 08:04:19;;;;;;;4.20;3.80;;;19.40;84.20;;;;;;5120526;28;20505;-43
2021/10/03 08:06:46;;;;;;;4.07;3.67;;;19.60;83.70;;;;;;5101653;28;20460;-40
2021/10/03 08:09:12;;;;;;;4.00;3.60;;;19.80;83.60;;;;;;5119525;28;20404;-39
2021/10/03 08:11:38;;;;;;;3.67;3.30;;;20.00;82.90;;;;;;5115761;28;20858;-42
2021/10/03 08:14:04;;;;;;;3.60;3.30;;;20.20;82.50;;;;;;5117150;28;20438;-42
2021/10/03 08:16:29;;;;;;;4.20;3.80;;;20.80;82.00;;;;;;5117707;28;20202;-39
2021/10/03 08:18:58;;;;;;;4.20;3.33;;;21.50;80.60;;;;;;5118019;28;20435;-42
2021/10/03 08:21:25;;;;;;;11.33;4.60;;;22.40;76.50;;;;;;5118934;28;20539;-43
2021/10/03 08:23:51;;;;;;;4.83;4.43;;;23.00;73.20;;;;;;5117857;28;20414;-40
2021/10/03 08:26:17;;;;;;;4.47;4.07;;;23.00;72.30;;;;;;5118067;28;20463;-43
2021/10/03 08:28:43;;;;;;;4.30;3.90;;;22.70;71.50;;;;;;5117716;28;20198;-40
2021/10/03 08:31:09;;;;;;;6.03;3.80;;;22.50;71.50;;;;;;5118753;28;20407;-41
2021/10/03 08:33:36;;;;;;;4.43;3.97;;;22.20;71.80;;;;;;5099046;28;20497;-41
2021/10/03 08:36:04;;;;;;;5.40;4.23;;;21.90;72.90;;;;;;5117947;28;20432;-40
2021/10/03 08:38:30;;;;;;;4.23;3.80;;;21.80;73.80;;;;;;5100658;28;20501;-43
2021/10/03 08:40:56;;;;;;;5.30;3.70;;;21.70;74.10;;;;;;5117452;28;20462;-40
2021/10/03 08:43:22;;;;;;;3.77;3.20;;;21.50;73.40;;;;;;5100758;28;20444;-40
2021/10/03 08:45:49;;;;;;;3.60;3.30;;;21.30;75.10;;;;;;5097354;28;20439;-40
2021/10/03 08:48:16;;;;;;;8.03;4.03;;;21.10;75.20;;;;;;5064728;28;20434;-40
2021/10/03 08:50:44;;;;;;;3.67;3.37;;;21.00;76.30;;;;;;5098863;28;20426;-43
2021/10/03 08:53:13;;;;;;;4.10;3.70;;;20.80;76.60;;;;;;5081490;28;20430;-43
2021/10/03 08:55:39;;;;;;;3.97;3.67;;;20.60;76.70;;;;;;5098986;28;20437;-39
2021/10/03 08:58:05;;;;;;;6.50;3.90;;;20.50;77.40;;;;;;5117293;28;20434;-41
2021/10/03 09:00:31;;;;;;;4.30;3.90;;;20.40;78.20;;;;;;5117326;28;20206;-40
2021/10/03 09:03:04;;;;;;;6.13;4.60;;;20.30;78.70;;;;;;5113204;28;20180;-42
2021/10/03 09:05:40;;;;;;;4.93;4.40;;;20.20;79.30;;;;;;5118796;28;20423;-41
2021/10/03 09:08:34;;;;;;;5.20;4.70;;;20.20;79.60;;;;;;5118110;28;20482;-40
2021/10/03 09:11:05;;;;;;;4.40;4.00;;;20.30;79.10;;;;;;5113529;28;20429;-42
2021/10/03 09:13:31;;;;;;;3.90;3.50;;;20.30;79.40;;;;;;5119598;28;20491;-41
2021/10/03 09:16:26;;;;;;;7.53;3.77;;;20.30;77.50;;;;;;5120244;28;20422;-40
2021/10/03 09:18:58;;;;;;;6.13;3.80;;;20.30;77.70;;;;;;5118487;28;20820;-42
2021/10/03 09:21:30;;;;;;;7.10;4.17;;;20.30;78.00;;;;;;5117517;28;20674;-42
2021/10/03 09:24:13;;;;;;;4.07;3.67;;;20.20;77.90;;;;;;5116568;28;20415;-42
2021/10/03 09:27:01;;;;;;;4.20;3.80;;;20.20;77.80;;;;;;5114186;28;20843;-41
2021/10/03 09:29:36;;;;;;;4.53;4.10;;;20.30;77.30;;;;;;5098214;28;20430;-44
2021/10/03 09:32:12;;;;;;;4.13;3.63;;;20.30;77.30;;;;;;5113820;28;20457;-40
2021/10/03 09:34:46;;;;;;;5.30;4.20;;;20.40;78.00;;;;;;5113802;28;20450;-40
2021/10/03 09:37:33;;;;;;;4.20;3.80;;;20.50;78.40;;;;;;5113464;28;20417;-41
2021/10/03 09:40:13;;;;;;;5.17;3.60;;;20.60;78.20;;;;;;5096002;28;20830;-42
2021/10/03 09:42:42;;;;;;;4.90;4.00;;;20.70;77.70;;;;;;5079210;28;20963;-41
2021/10/03 09:45:17;;;;;;;5.03;4.20;;;20.70;77.70;;;;;;5116085;28;20415;-42
2021/10/03 09:47:46;;;;;;;4.90;3.50;;;20.80;78.20;;;;;;5098028;28;20684;-41
2021/10/03 09:50:14;;;;;;;4.30;3.90;;;20.80;77.10;;;;;;5116279;28;20429;-42
2021/10/03 09:52:42;;;;;;;4.23;3.83;;;20.90;77.20;;;;;;5095567;28;20532;-42
2021/10/03 09:55:13;;;;;;;4.20;3.80;;;20.90;77.70;;;;;;5116067;28;20452;-43
2021/10/03 09:57:40;;;;;;;4.83;4.07;;;20.90;77.30;;;;;;5114778;28;20426;-43
2021/10/03 10:00:07;;;;;;;4.93;3.77;;;21.00;77.80;;;;;;5114706;28;20465;-42
2021/10/03 10:02:35;;;;;;;5.57;4.20;;;21.10;77.50;;;;;;5115074;28;20505;-41
2021/10/03 10:05:05;;;;;;;5.20;3.80;;;21.20;76.60;;;;;;5115886;28;20417;-42
2021/10/03 10:07:34;;;;;;;3.93;3.63;;;21.50;77.30;;;;;;5116064;28;20427;-42
2021/10/03 10:10:00;;;;;;;4.87;3.57;;;21.70;76.90;;;;;;5116041;28;20426;-42
2021/10/03 10:12:28;;;;;;;5.53;3.50;;;22.00;75.60;;;;;;5116691;28;20438;-43
2021/10/03 10:15:04;;;;;;;3.50;3.10;;;22.20;74.50;;;;;;5082473;28;20453;-43
2021/10/03 10:17:35;;;;;;;4.67;3.80;;;22.40;75.00;;;;;;5115580;28;20479;-42
2021/10/03 10:20:27;;;;;;;5.00;3.90;;;22.60;74.80;;;;;;5113956;28;20531;-41
2021/10/03 10:23:01;;;;;;;4.83;4.33;;;22.70;73.60;;;;;;5113616;28;20819;-43
2021/10/03 10:25:46;;;;;;;3.87;3.37;;;22.70;71.80;;;;;;5095378;28;20521;-41
2021/10/03 10:28:32;;;;;;;4.60;4.20;;;22.60;72.40;;;;;;5114475;28;20465;-42
2021/10/03 10:31:18;;;;;;;6.13;4.03;;;22.50;72.90;;;;;;5092335;28;20749;-42
2021/10/03 10:33:50;;;;;;;4.07;3.67;;;22.50;73.70;;;;;;5116195;28;20487;-41
2021/10/03 10:36:30;;;;;;;4.50;4.07;;;22.60;74.00;;;;;;5114944;28;20402;-43
2021/10/03 10:39:08;;;;;;;4.27;3.87;;;22.60;74.60;;;;;;5116476;28;20401;-43
2021/10/03 10:41:38;;;;;;;4.40;4.00;;;22.70;74.00;;;;;;5114776;28;20452;-41
2021/10/03 10:44:26;;;;;;;4.57;3.97;;;22.70;74.40;;;;;;5114244;28;20428;-43
2021/10/03 10:46:59;;;;;;;4.10;3.80;;;22.80;74.40;;;;;;5116925;28;20417;-44
2021/10/03 10:49:50;;;;;;;4.07;3.73;;;22.80;74.50;;;;;;5116302;28;20661;-42
2021/10/03 10:52:19;;;;;;;4.83;4.43;;;22.80;74.60;;;;;;5116115;28;20449;-41
2021/10/03 10:55:21;;;;;;;4.53;4.13;;;22.80;73.80;;;;;;5117005;28;20494;-41
2021/10/03 10:57:48;;;;;;;4.07;3.77;;;22.70;74.30;;;;;;5115289;28;20524;-41
2021/10/03 11:00:19;;;;;;;4.50;4.10;;;22.60;75.60;;;;;;5116536;28;20472;-39
2021/10/03 11:03:04;;;;;;;5.20;4.57;;;22.50;75.60;;;;;;5098354;28;20435;-42
2021/10/03 11:05:37;;;;;;;4.40;4.00;;;22.40;75.90;;;;;;5115795;28;20420;-42
2021/10/03 11:08:16;;;;;;;7.40;4.57;;;22.20;77.00;;;;;;5115636;28;20832;-41
2021/10/03 11:11:00;;;;;;;5.10;4.13;;;22.30;77.70;;;;;;5116678;28;20445;-41
2021/10/03 11:13:41;;;;;;;5.27;4.87;;;22.20;77.90;;;;;;5116786;28;21054;-45
2021/10/03 11:16:30;;;;;;;4.77;4.37;;;22.20;78.60;;;;;;5116962;28;20860;-41
2021/10/03 11:18:58;;;;;;;5.20;4.70;;;22.20;79.00;;;;;;5117281;28;20417;-45
2021/10/03 11:21:34;;;;;;;7.90;4.70;;;22.40;78.80;;;;;;5116152;28;20762;-42
2021/10/03 11:24:05;;;;;;;4.63;4.20;;;22.70;78.50;;;;;;5115982;28;20422;-41
2021/10/03 11:26:52;;;;;;;5.73;5.20;;;22.90;76.90;;;;;;5115887;28;20410;-39
2021/10/03 11:29:23;;;;;;;5.20;3.83;;;23.20;77.00;;;;;;5095956;28;20406;-39
2021/10/03 11:31:51;;;;;;;5.87;4.00;;;23.40;76.50;;;;;;5091578;28;20540;-43
2021/10/03 11:34:38;;;;;;;4.93;4.53;;;23.50;75.60;;;;;;5094636;28;20481;-41
2021/10/03 11:37:05;;;;;;;4.53;4.13;;;23.50;75.30;;;;;;5095318;28;20851;-41
2021/10/03 11:39:47;;;;;;;5.20;4.70;;;23.30;75.70;;;;;;5094823;28;20948;-41
2021/10/03 11:42:15;;;;;;;6.53;3.40;;;23.20;75.80;;;;;;5095393;28;20444;-42
2021/10/03 11:44:42;;;;;;;4.10;3.50;;;23.10;76.00;;;;;;5096430;28;20411;-41
2021/10/03 11:47:10;;;;;;;6.33;3.83;;;23.10;76.40;;;;;;5096880;28;20438;-40
2021/10/03 11:49:39;;;;;;;4.60;4.13;;;23.20;75.70;;;;;;5100281;28;20427;-43
2021/10/03 11:52:06;;;;;;;4.47;4.07;;;23.20;75.00;;;;;;5081488;28;20894;-40
2021/10/03 11:54:45;;;;;;;4.53;4.13;;;23.30;75.40;;;;;;5097530;28;20414;-41
2021/10/03 11:57:29;;;;;;;4.33;3.93;;;23.50;75.10;;;;;;5097852;28;20441;-39
2021/10/03 12:00:13;;;;;;;4.03;3.73;;;23.90;73.20;;;;;;5097144;28;20549;-39
2021/10/03 12:02:46;;;;;;;4.10;3.70;;;24.30;73.00;;;;;;5097136;28;20420;-42
2021/10/03 12:05:23;;;;;;;4.40;4.00;;;24.50;70.90;;;;;;5097956;28;20415;-40
2021/10/03 12:08:07;;;;;;;3.90;3.60;;;24.60;70.50;;;;;;5099247;28;20413;-40
2021/10/03 12:10:44;;;;;;;5.53;3.93;;;24.50;71.20;;;;;;5098358;28;20429;-40
2021/10/03 12:13:19;;;;;;;4.03;3.63;;;24.80;70.80;;;;;;5098615;28;20431;-38
2021/10/03 12:15:51;;;;;;;4.73;4.23;;;25.40;69.40;;;;;;5099068;28;20967;-43
2021/10/03 12:18:29;;;;;;;4.07;3.77;;;26.00;68.60;;;;;;5099763;28;20462;-42
2021/10/03 12:21:00;;;;;;;5.03;3.87;;;26.50;66.00;;;;;;5098625;28;20537;-40
2021/10/03 12:23:43;;;;;;;4.50;3.90;;;26.80;63.60;;;;;;5099368;28;20490;-40
2021/10/03 12:26:18;;;;;;;3.80;3.50;;;26.60;63.10;;;;;;5096025;28;20476;-40
2021/10/03 12:29:05;;;;;;;4.00;3.60;;;26.40;63.20;;;;;;5099210;28;20441;-43
2021/10/03 12:31:42;;;;;;;4.57;3.77;;;26.10;63.60;;;;;;5101942;28;20805;-42
2021/10/03 12:34:14;;;;;;;4.70;4.20;;;26.20;63.70;;;;;;5101599;28;20422;-42
2021/10/03 12:37:00;;;;;;;4.30;3.50;;;26.30;62.90;;;;;;5119950;28;20392;-44
2021/10/03 12:39:34;;;;;;;4.20;3.90;;;26.60;63.20;;;;;;5119685;28;20435;-43
2021/10/03 12:42:19;;;;;;;3.67;3.37;;;26.80;62.40;;;;;;5100699;28;20882;-42
2021/10/03 12:44:48;;;;;;;4.47;4.07;;;27.00;62.10;;;;;;5085039;28;20445;-44
2021/10/03 12:47:15;;;;;;;4.60;4.20;;;27.00;61.80;;;;;;5119558;28;20409;-39
2021/10/03 12:49:42;;;;;;;4.70;4.30;;;26.70;62.90;;;;;;5102617;28;20807;-43
2021/10/03 12:52:10;;;;;;;4.80;3.83;;;26.50;64.00;;;;;;5101958;28;20418;-42
2021/10/03 12:54:36;;;;;;;4.30;3.90;;;26.20;64.80;;;;;;5119859;28;20399;-42
2021/10/03 12:57:07;;;;;;;4.50;4.10;;;26.00;66.90;;;;;;5101186;28;20430;-43